Time;durP1;ratioP1;P1;durP2;ratioP2;P2;SDS_P1;SDS_P2;PMS_P1;PMS_P2;Temp;Humidity;BMP_temperature;BMP_pressure;BME280_temperature;BME280_humidity;BME280_pressure;Samples;Min_cycle;Max_cycle;Signal;HPM_P1;HPM_P2
2022/02/07 00:00:47;;;;;;;11.63;3.33;;;;;;;4.86;82.25;99183.47;5100504;28;20050;-63
2022/02/07 00:06:21;;;;;;;10.48;3.92;;;;;;;4.87;81.72;99211.75;5115792;28;20043;-63
2022/02/07 00:09:07;;;;;;;22.88;4.50;;;;;;;4.87;81.57;99218.59;5114823;28;20054;-63
2022/02/07 00:11:51;;;;;;;12.40;4.30;;;;;;;4.86;82.14;99228.00;5100518;28;20425;-65
2022/02/07 00:14:35;;;;;;;9.55;3.80;;;;;;;4.85;81.61;99249.38;5100676;28;20432;-64
2022/02/07 00:17:22;;;;;;;14.10;4.68;;;;;;;4.83;81.79;99265.53;5100225;28;20050;-63
2022/02/07 00:20:15;;;;;;;18.00;4.82;;;;;;;4.82;82.17;99274.94;5115405;28;20054;-63
2022/02/07 00:23:02;;;;;;;10.55;4.72;;;;;;;4.82;81.47;99289.50;5100191;28;20521;-63
2022/02/07 00:25:46;;;;;;;19.65;4.72;;;;;;;4.83;81.67;99301.50;5100270;28;20050;-64
2022/02/07 00:28:32;;;;;;;9.75;3.92;;;;;;;4.85;81.92;99317.81;5115023;28;20092;-63
2022/02/07 00:31:19;;;;;;;12.68;4.38;;;;;;;4.83;81.71;99330.63;5099948;28;20054;-63
2022/02/07 00:34:06;;;;;;;12.15;4.35;;;;;;;4.81;81.59;99360.50;5099659;28;20093;-63
2022/02/07 00:36:50;;;;;;;5.97;4.03;;;;;;;4.85;81.57;99395.72;5115292;28;20081;-64
2022/02/07 00:39:44;;;;;;;10.52;4.32;;;;;;;4.84;81.98;99417.09;5114754;28;20128;-63
2022/02/07 00:42:35;;;;;;;9.80;3.22;;;;;;;4.76;81.80;99415.13;5099439;28;20054;-63
2022/02/07 00:48:24;;;;;;;8.40;4.00;;;;;;;4.72;82.08;99404.75;5094589;28;20070;-63
2022/02/07 00:51:10;;;;;;;8.57;2.90;;;;;;;4.64;81.99;99413.94;5094444;28;20109;-63
2022/02/07 00:53:58;;;;;;;6.00;3.50;;;;;;;4.65;81.45;99412.22;5093500;28;20104;-63
2022/02/07 00:56:44;;;;;;;10.07;3.65;;;;;;;4.61;81.74;99426.69;5093496;28;20116;-63
2022/02/07 00:59:29;;;;;;;6.90;3.35;;;;;;;4.63;81.47;99443.00;5094259;28;20515;-64
2022/02/07 01:02:13;;;;;;;17.02;4.80;;;;;;;4.61;81.53;99452.34;5094222;28;20544;-64
2022/02/07 01:04:56;;;;;;;8.05;3.95;;;;;;;4.63;81.33;99454.94;5094123;28;20556;-64
2022/02/07 01:07:47;;;;;;;6.28;4.25;;;;;;;4.65;82.13;99487.56;5094367;28;20047;-64
2022/02/07 01:11:22;;;;;;;8.23;3.33;;;;;;;4.53;81.85;99482.91;5093754;28;20047;-63
2022/02/07 01:17:27;;;;;;;12.38;4.32;;;;;;;4.54;81.50;99505.19;5093832;28;20078;-64
2022/02/07 01:49:43;;;;;;;12.85;4.15;;;;;;;4.65;81.27;99627.88;5093782;28;20051;-63
2022/02/07 01:52:56;;;;;;;15.43;4.47;;;;;;;4.63;81.92;99630.38;5093436;28;20043;-64
2022/02/07 01:55:43;;;;;;;14.98;5.32;;;;;;;4.64;82.08;99646.66;5092703;28;20086;-63
2022/02/07 01:58:28;;;;;;;11.25;4.45;;;;;;;4.65;81.85;99663.81;5092446;28;20398;-63
2022/02/07 02:01:12;;;;;;;11.70;5.10;;;;;;;4.67;81.64;99683.56;5092942;28;20557;-63
2022/02/07 02:04:01;;;;;;;9.82;4.30;;;;;;;4.67;81.33;99695.53;5093566;28;20047;-63
2022/02/07 02:06:46;;;;;;;12.20;4.50;;;;;;;4.64;81.45;99692.84;5092747;28;20181;-63
2022/02/07 02:09:30;;;;;;;11.77;3.65;;;;;;;4.60;81.35;99714.09;5092836;28;20100;-63
2022/02/07 02:12:15;;;;;;;7.25;4.05;;;;;;;4.59;81.76;99723.50;5092549;28;20462;-64
2022/02/07 02:18:15;;;;;;;7.47;3.72;;;;;;;4.61;81.41;99744.97;5093627;28;20453;-63
2022/02/07 02:47:46;;;;;;;8.93;4.15;;;;;;;4.53;81.54;99828.50;5117111;28;20130;-66
2022/02/07 02:50:35;;;;;;;18.15;5.05;;;;;;;4.52;81.73;99824.19;5117209;28;20123;-64
2022/02/07 02:53:20;;;;;;;9.25;4.15;;;;;;;4.54;81.33;99843.09;5101896;28;20540;-63
2022/02/07 02:56:06;;;;;;;11.05;4.78;;;;;;;4.54;81.53;99838.84;5101603;28;20082;-63
2022/02/07 02:58:51;;;;;;;11.00;4.38;;;;;;;4.55;81.80;99849.97;5101369;28;20082;-63
2022/02/07 03:01:37;;;;;;;11.15;4.47;;;;;;;4.55;81.60;99852.56;5116926;28;20054;-63
2022/02/07 03:04:21;;;;;;;12.57;3.53;;;;;;;4.60;81.25;99875.81;5101671;28;20050;-63
2022/02/07 03:07:06;;;;;;;9.23;4.70;;;;;;;4.56;81.18;99875.72;5116893;28;20050;-63
2022/02/07 03:09:50;;;;;;;11.70;4.43;;;;;;;4.57;81.78;99877.47;5116722;28;20537;-63
2022/02/07 03:12:49;;;;;;;11.75;3.80;;;;;;;4.56;81.30;99888.56;5116939;28;20098;-63
2022/02/07 03:18:38;;;;;;;12.93;4.55;;;;;;;4.52;81.38;99903.75;5116536;28;20054;-63
2022/02/07 03:21:22;;;;;;;12.23;4.00;;;;;;;4.51;81.29;99912.31;5116793;28;20089;-63
2022/02/07 03:24:07;;;;;;;8.70;3.72;;;;;;;4.52;81.14;99920.06;5116522;28;20051;-63
2022/02/07 03:26:51;;;;;;;14.80;4.38;;;;;;;4.52;81.24;99930.31;5101242;28;20051;-64
2022/02/07 03:29:37;;;;;;;9.73;3.88;;;;;;;4.53;81.64;99936.31;5116557;28;20050;-63
2022/02/07 03:32:21;;;;;;;8.60;3.83;;;;;;;4.54;80.85;99946.66;5100905;28;20558;-63
2022/02/07 03:35:05;;;;;;;13.68;4.45;;;;;;;4.55;81.21;99958.69;5116564;28;20073;-63
2022/02/07 03:37:52;;;;;;;;;;;;;;;4.53;81.59;99975.72;5101252;28;20499;-63
2022/02/07 03:40:39;;;;;;;10.80;3.92;;;;;;;4.55;81.33;99991.16;5115949;28;19918;-63
2022/02/07 03:43:26;;;;;;;14.27;4.75;;;;;;;4.52;81.11;99989.34;5100836;28;20047;-64
2022/02/07 03:46:13;;;;;;;12.90;4.32;;;;;;;4.49;81.51;99996.94;5115919;28;20089;-63
2022/02/07 03:48:57;;;;;;;7.97;4.80;;;;;;;4.52;81.49;100002.19;5100277;28;20100;-63
2022/02/07 03:51:46;;;;;;;11.95;4.28;;;;;;;4.53;81.48;100011.66;5115909;28;20055;-63
2022/02/07 03:54:30;;;;;;;11.05;4.25;;;;;;;4.56;80.81;100024.63;5115878;28;20090;-64
2022/02/07 03:57:15;;;;;;;11.48;4.07;;;;;;;4.57;81.43;100028.94;5115866;28;20141;-63
2022/02/07 04:00:01;;;;;;;12.73;3.95;;;;;;;4.59;81.39;100040.97;5115787;28;20058;-64
2022/02/07 04:02:49;;;;;;;13.10;4.53;;;;;;;4.58;81.59;100047.75;5116023;28;20089;-64
2022/02/07 04:05:49;;;;;;;18.08;5.07;;;;;;;4.55;81.42;100045.97;5100691;28;20046;-64
2022/02/07 04:08:37;;;;;;;12.73;4.18;;;;;;;4.59;81.53;100046.94;5115610;28;20039;-64
2022/02/07 04:11:28;;;;;;;16.65;4.20;;;;;;;4.59;81.50;100074.31;5115546;28;20046;-64
2022/02/07 04:14:19;;;;;;;11.57;4.18;;;;;;;4.57;81.49;100074.25;5100337;28;20089;-63
2022/02/07 04:17:03;;;;;;;14.90;4.82;;;;;;;4.54;81.00;100082.72;5100060;28;20054;-64
2022/02/07 04:19:47;;;;;;;;;;;;;;;4.56;80.95;100087.88;5100613;28;20093;-63
2022/02/07 04:22:31;;;;;;;17.38;4.43;;;;;;;4.55;81.12;100097.28;5115185;28;19957;-63
2022/02/07 04:25:15;;;;;;;38.92;5.95;;;;;;;4.53;81.13;100104.06;5115156;28;20084;-63
2022/02/07 04:27:59;;;;;;;13.27;4.93;;;;;;;4.51;81.07;100105.69;5100079;28;20579;-64
2022/02/07 04:30:43;;;;;;;15.43;4.88;;;;;;;4.51;81.15;100120.22;5115242;28;20595;-64
2022/02/07 04:33:30;;;;;;;12.63;4.93;;;;;;;4.50;81.60;100116.75;5115415;28;20394;-63
2022/02/07 04:36:14;;;;;;;10.98;4.10;;;;;;;4.52;81.43;100124.50;5099861;28;20176;-63
2022/02/07 04:39:00;;;;;;;13.88;4.47;;;;;;;4.54;81.06;100139.19;5115312;28;20043;-63
2022/02/07 04:41:45;;;;;;;9.57;3.83;;;;;;;4.53;81.64;100154.50;5114640;28;20065;-63
2022/02/07 04:44:36;;;;;;;;;;;;;;;4.54;81.48;100158.81;5099660;28;20054;-64
2022/02/07 04:56:17;;;;;;;11.48;3.55;;;;;;;4.47;81.52;100164.53;5114383;28;20074;-63
2022/02/07 04:59:07;;;;;;;12.15;4.25;;;;;;;4.44;81.07;100172.94;5114556;28;20046;-64
2022/02/07 05:02:04;;;;;;;9.95;3.88;;;;;;;4.46;81.22;100181.59;5114484;28;20046;-64
2022/02/07 05:04:58;;;;;;;11.60;4.97;;;;;;;4.50;81.50;100188.63;5114312;28;20085;-64
2022/02/07 05:13:58;;;;;;;10.98;4.40;;;;;;;4.48;80.86;100197.09;5052258;28;20440;-63
2022/02/07 05:16:42;;;;;;;15.70;5.45;;;;;;;4.47;81.60;100197.88;5099223;28;20047;-63
2022/02/07 05:19:29;;;;;;;13.55;5.15;;;;;;;4.44;81.03;100203.75;5114340;28;20448;-63
2022/02/07 05:22:13;;;;;;;12.82;5.00;;;;;;;4.46;81.48;100209.81;5114555;28;20054;-63
2022/02/07 05:24:57;;;;;;;13.77;3.85;;;;;;;4.44;80.71;100221.72;5113712;28;20093;-64
2022/02/07 05:27:40;;;;;;;14.00;4.95;;;;;;;4.43;80.91;100232.81;5114061;28;20100;-64
2022/02/07 05:30:25;;;;;;;9.30;4.72;;;;;;;4.44;81.30;100244.81;5099166;28;20049;-63
2022/02/07 05:33:09;;;;;;;17.92;5.28;;;;;;;4.41;81.13;100247.28;5114386;28;20518;-63
2022/02/07 05:35:53;;;;;;;12.43;4.70;;;;;;;4.40;81.16;100255.78;5114398;28;20081;-63
2022/02/07 05:38:40;;;;;;;10.82;4.50;;;;;;;4.38;81.66;100263.38;5114355;28;20066;-65
2022/02/07 05:41:24;;;;;;;12.30;3.63;;;;;;;4.37;81.24;100276.16;5113931;28;20070;-63
2022/02/07 05:44:08;;;;;;;11.43;4.57;;;;;;;4.37;81.09;100281.31;5113846;28;20101;-64
2022/02/07 05:46:53;;;;;;;9.73;4.43;;;;;;;4.38;80.87;100285.63;5098956;28;20136;-63
2022/02/07 05:49:40;;;;;;;8.18;4.38;;;;;;;4.37;80.83;100296.69;5114234;28;20579;-64
2022/02/07 05:52:24;;;;;;;9.88;3.92;;;;;;;4.35;81.11;100301.78;5113951;28;20411;-64
2022/02/07 05:55:08;;;;;;;8.82;3.47;;;;;;;4.34;80.75;100300.00;5114199;28;20062;-64
2022/02/07 05:57:58;;;;;;;;;;;;;;;4.33;80.94;100317.88;5098689;28;20529;-63
2022/02/07 06:00:42;;;;;;;8.93;3.85;;;;;;;4.31;81.08;100322.06;5098520;28;19972;-63
2022/02/07 06:03:26;;;;;;;14.32;3.85;;;;;;;4.31;80.75;100330.66;5113896;28;20497;-64
2022/02/07 06:06:13;;;;;;;8.20;3.88;;;;;;;4.29;81.03;100329.72;5114730;28;20555;-63
2022/02/07 06:08:57;;;;;;;15.43;4.70;;;;;;;4.32;81.14;100341.78;5102334;28;20092;-63
2022/02/07 06:11:43;;;;;;;9.30;4.35;;;;;;;4.30;80.75;100330.56;5118200;28;20050;-63
2022/02/07 06:14:27;;;;;;;9.00;4.03;;;;;;;4.31;81.39;100342.59;5102742;28;20609;-64
2022/02/07 06:17:11;;;;;;;13.52;5.00;;;;;;;4.29;80.79;100342.53;5118298;28;20517;-64
2022/02/07 06:19:59;;;;;;;;;;;;;;;4.29;80.47;100368.19;5118218;28;20460;-63
2022/02/07 06:22:45;;;;;;;16.20;4.10;;;;;;;4.28;81.07;100365.56;5102533;28;19990;-64
2022/02/07 06:25:29;;;;;;;10.00;4.80;;;;;;;4.23;80.98;100370.47;5102235;28;20556;-64
2022/02/07 06:28:13;;;;;;;;;;;;;;;4.24;81.09;100370.56;5117894;28;20096;-64
2022/02/07 06:30:58;;;;;;;9.70;3.97;;;;;;;4.23;80.93;100368.78;5117419;28;20056;-63
2022/02/07 06:33:42;;;;;;;8.55;4.20;;;;;;;4.22;81.08;100372.16;5117172;28;20046;-64
2022/02/07 06:36:27;;;;;;;13.98;5.05;;;;;;;4.20;80.89;100371.22;5117118;28;20554;-63
2022/02/07 06:39:14;;;;;;;10.90;3.92;;;;;;;4.21;80.45;100384.91;5102193;28;20046;-64
2022/02/07 06:42:01;;;;;;;10.45;4.22;;;;;;;4.19;81.06;100392.53;5102071;28;20058;-64
2022/02/07 06:44:47;;;;;;;15.52;4.97;;;;;;;4.20;80.53;100398.56;5116662;28;20050;-63
2022/02/07 06:47:31;;;;;;;12.15;3.95;;;;;;;4.19;81.12;100404.50;5117087;28;20110;-63
2022/02/07 06:50:15;;;;;;;16.42;4.72;;;;;;;4.18;80.09;100403.63;5117427;28;20049;-63
2022/02/07 06:52:59;;;;;;;10.10;4.15;;;;;;;4.19;80.81;100392.53;5101450;28;20513;-64
2022/02/07 06:55:44;;;;;;;8.00;4.03;;;;;;;4.18;80.72;100406.19;5117083;28;20059;-63
2022/02/07 06:58:28;;;;;;;15.43;5.88;;;;;;;4.21;80.35;100408.00;5117190;28;20073;-64
2022/02/07 07:01:15;;;;;;;11.50;4.18;;;;;;;4.22;80.93;100418.34;5101352;28;20558;-63
2022/02/07 07:03:59;;;;;;;16.52;4.82;;;;;;;4.23;80.49;100427.81;5116851;28;20097;-64
2022/02/07 07:06:43;;;;;;;;;;;;;;;4.21;81.00;100433.66;5117203;28;20088;-63
2022/02/07 07:09:27;;;;;;;14.70;4.85;;;;;;;4.22;80.16;100437.97;5116327;28;19923;-63
2022/02/07 07:12:11;;;;;;;17.20;4.28;;;;;;;4.23;80.69;100444.88;5116703;28;20047;-64
2022/02/07 07:17:52;;;;;;;13.52;5.00;;;;;;;4.22;80.26;100458.50;5116170;28;19922;-63
2022/02/07 07:20:36;;;;;;;17.27;4.55;;;;;;;4.21;80.60;100473.03;5116717;28;20050;-63
2022/02/07 07:23:20;;;;;;;;;;;;;;;4.22;80.29;100487.63;5117153;28;20104;-64
2022/02/07 07:26:04;;;;;;;10.23;4.57;;;;;;;4.21;80.58;100488.44;5116328;28;19923;-63
2022/02/07 07:28:49;;;;;;;;;;;;;;;4.21;80.57;100487.53;5101696;28;20096;-63
2022/02/07 07:31:39;;;;;;;9.00;5.55;;;;;;;4.20;80.16;100488.38;5101240;28;19918;-63
2022/02/07 07:34:26;;;;;;;11.32;3.83;;;;;;;4.20;80.20;100501.19;5100788;28;20409;-64
2022/02/07 07:37:10;;;;;;;12.02;4.30;;;;;;;4.22;80.16;100507.25;5100951;28;20524;-64
2022/02/07 07:39:55;;;;;;;14.23;5.30;;;;;;;4.24;80.33;100518.47;5116444;28;20047;-63
2022/02/07 07:42:39;;;;;;;;;;;;;;;4.22;79.80;100530.34;5116816;28;20100;-64
2022/02/07 07:45:28;;;;;;;10.70;5.65;;;;;;;4.22;80.42;100523.56;5100158;28;19923;-64
2022/02/07 07:48:19;;;;;;;8.27;3.92;;;;;;;4.23;80.39;100529.56;5101028;28;20126;-64
2022/02/07 07:51:06;;;;;;;11.38;4.53;;;;;;;4.26;80.38;100534.84;5116123;28;20096;-63
2022/02/07 07:54:15;;;;;;;12.48;4.90;;;;;;;4.29;81.03;100531.53;5115549;28;20054;-64
2022/02/07 08:03:08;;;;;;;15.07;4.57;;;;;;;4.29;80.79;100570.03;5115966;28;20050;-64
2022/02/07 08:06:09;;;;;;;;;;;;;;;4.30;80.12;100571.78;5115617;28;20130;-64
2022/02/07 08:11:51;;;;;;;10.20;4.22;;;;;;;4.27;80.68;100605.88;5115541;28;20049;-64
2022/02/07 08:14:35;;;;;;;9.48;4.00;;;;;;;4.24;80.36;100611.75;5115524;28;20085;-63
2022/02/07 08:17:21;;;;;;;;;;;;;;;4.21;80.64;100621.84;5100378;28;20046;-63
2022/02/07 08:20:08;;;;;;;14.43;4.10;;;;;;;4.22;80.70;100628.75;5115708;28;19923;-63
2022/02/07 08:22:53;;;;;;;15.20;4.82;;;;;;;4.21;80.26;100641.50;5100143;28;20559;-63
2022/02/07 08:25:37;;;;;;;;;;;;;;;4.20;80.52;100648.31;5115668;28;20129;-64
2022/02/07 08:28:21;;;;;;;12.32;4.28;;;;;;;4.21;80.40;100652.66;5099614;28;19923;-63
2022/02/07 08:31:05;;;;;;;16.02;6.47;;;;;;;4.20;80.51;100663.72;5115491;28;20588;-64
2022/02/07 08:33:49;;;;;;;18.42;5.15;;;;;;;4.20;80.30;100667.97;5115140;28;20082;-63
2022/02/07 08:36:33;;;;;;;17.17;4.75;;;;;;;4.18;80.51;100672.16;5099891;28;20551;-62
2022/02/07 08:39:19;;;;;;;13.48;4.63;;;;;;;4.16;80.11;100678.88;5115279;28;20085;-64
2022/02/07 08:42:06;;;;;;;13.95;4.55;;;;;;;4.16;80.56;100692.56;5115099;28;20085;-64
2022/02/07 08:44:53;;;;;;;15.70;4.75;;;;;;;4.13;79.94;100679.59;5099516;28;20061;-64
2022/02/07 08:47:37;;;;;;;11.57;5.00;;;;;;;4.12;80.67;100685.53;5114813;28;20100;-63
2022/02/07 08:50:21;;;;;;;13.02;5.68;;;;;;;4.15;80.12;100679.69;5114893;28;20082;-63
2022/02/07 08:53:08;;;;;;;13.95;5.85;;;;;;;4.11;79.82;100697.47;5115061;28;20131;-63
2022/02/07 08:55:56;;;;;;;10.68;4.47;;;;;;;4.13;80.85;100694.97;5114665;28;20047;-64
2022/02/07 08:58:44;;;;;;;14.63;5.85;;;;;;;4.12;80.39;100698.38;5099369;28;20513;-63
2022/02/07 09:01:40;;;;;;;15.18;4.85;;;;;;;4.12;79.85;100688.09;5114666;28;20090;-63
2022/02/07 09:04:46;;;;;;;11.35;4.85;;;;;;;4.12;80.39;100695.81;5114729;28;20097;-63
2022/02/07 09:07:36;;;;;;;8.05;4.50;;;;;;;4.13;80.40;100706.94;5099047;28;20062;-64
2022/02/07 09:10:20;;;;;;;13.00;4.30;;;;;;;4.15;80.14;100728.44;5114781;28;20636;-63
2022/02/07 09:13:06;;;;;;;16.42;6.10;;;;;;;4.13;80.63;100723.19;5114723;28;20051;-63
2022/02/07 09:16:18;;;;;;;15.13;4.88;;;;;;;4.12;79.90;100721.47;5099251;28;20050;-63
2022/02/07 09:19:03;;;;;;;10.25;4.35;;;;;;;4.14;80.23;100729.22;5114312;28;20410;-63
2022/02/07 09:21:48;;;;;;;9.50;4.32;;;;;;;4.17;79.93;100726.81;5099341;28;20096;-63
2022/02/07 09:24:32;;;;;;;13.02;5.28;;;;;;;4.16;79.80;100725.06;5099106;28;20084;-64
2022/02/07 09:27:16;;;;;;;13.13;4.30;;;;;;;4.16;80.13;100735.31;5113948;28;20046;-63
2022/02/07 09:30:04;;;;;;;11.43;4.57;;;;;;;4.15;80.07;100734.44;5114203;28;20062;-63
2022/02/07 09:32:49;;;;;;;19.83;4.72;;;;;;;4.17;80.39;100742.22;5114068;28;20051;-64
2022/02/07 09:35:35;;;;;;;;;;;;;;;4.15;80.19;100754.94;5114490;28;20104;-64
2022/02/07 09:38:19;;;;;;;14.32;4.70;;;;;;;4.14;79.74;100766.00;5113948;28;19961;-63
2022/02/07 09:41:04;;;;;;;12.18;4.32;;;;;;;4.16;80.13;100772.13;5113764;28;20088;-63
2022/02/07 09:43:49;;;;;;;;;;;;;;;4.14;80.23;100783.97;5114335;28;20398;-63
2022/02/07 09:46:43;;;;;;;15.73;3.75;;;;;;;4.16;80.67;100782.38;5099087;28;19922;-63
2022/02/07 09:49:27;;;;;;;11.65;4.40;;;;;;;4.18;80.56;100803.88;5113782;28;20047;-63
2022/02/07 09:52:12;;;;;;;13.15;4.57;;;;;;;4.20;80.10;100815.09;5127669;28;20047;-64
2022/02/07 09:54:59;;;;;;;;;;;;;;;4.18;80.38;100814.13;5098990;28;20112;-63
2022/02/07 09:57:43;;;;;;;17.00;4.07;;;;;;;4.17;79.96;100812.38;5098672;28;19981;-63
2022/02/07 10:00:32;;;;;;;6.70;3.63;;;;;;;4.17;80.35;100824.34;5098799;28;20050;-63
2022/02/07 10:03:30;;;;;;;11.65;4.75;;;;;;;4.18;79.82;100849.19;5113922;28;20042;-63
2022/02/07 10:06:31;;;;;;;11.32;4.30;;;;;;;4.17;79.89;100837.16;5113526;28;20049;-63
2022/02/07 10:09:26;;;;;;;10.77;3.90;;;;;;;4.16;80.58;100838.81;5098849;28;20398;-63
2022/02/07 10:18:30;;;;;;;13.38;4.20;;;;;;;4.19;80.20;100850.97;5113756;28;20054;-63
2022/02/07 10:21:31;;;;;;;10.73;3.78;;;;;;;4.20;80.19;100856.16;5113658;28;20051;-63
2022/02/07 10:37:40;;;;;;;14.00;4.80;;;;;;;4.41;79.77;100894.94;5113593;28;20043;-63
2022/02/07 10:40:08;;;;;;;10.65;4.22;;;;;;;4.47;80.16;100899.53;5113505;28;20046;-62
2022/02/07 10:48:53;;;;;;;18.38;4.75;;;;;;;4.57;80.16;100908.63;5113557;28;20165;-64
2022/02/07 10:51:40;;;;;;;15.55;4.53;;;;;;;4.61;80.08;100910.56;5113711;28;20501;-63
2022/02/07 10:54:27;;;;;;;10.50;4.30;;;;;;;4.64;80.00;100913.28;5117433;28;20088;-64
2022/02/07 10:57:12;;;;;;;12.32;5.50;;;;;;;4.67;79.90;100916.00;5117250;28;20406;-64
2022/02/07 10:59:58;;;;;;;12.27;4.43;;;;;;;4.71;79.75;100922.22;5116925;28;20046;-63
2022/02/07 11:03:08;;;;;;;16.67;4.32;;;;;;;4.74;79.55;100927.53;5116784;28;20086;-64
2022/02/07 11:05:52;;;;;;;10.63;3.83;;;;;;;4.76;79.77;100931.03;5116376;28;20418;-64
2022/02/07 11:21:06;;;;;;;8.60;4.00;;;;;;;4.87;79.55;100952.16;5116582;28;20414;-64
2022/02/07 11:23:52;;;;;;;8.48;3.25;;;;;;;4.87;79.80;100945.34;5115842;28;20046;-63
2022/02/07 11:26:47;;;;;;;14.57;3.78;;;;;;;4.90;79.50;100946.31;5101242;28;20522;-63
2022/02/07 11:29:48;;;;;;;8.35;3.60;;;;;;;4.92;79.91;100948.16;5101286;28;20082;-64
2022/02/07 11:32:41;;;;;;;11.45;5.00;;;;;;;4.93;79.78;100939.66;5116573;28;20082;-64
2022/02/07 11:35:31;;;;;;;12.63;4.43;;;;;;;4.95;79.36;100943.19;5100925;28;20111;-64
2022/02/07 11:38:18;;;;;;;9.75;4.10;;;;;;;4.95;80.17;100953.47;5101123;28;20153;-63
2022/02/07 11:41:05;;;;;;;8.80;4.50;;;;;;;4.96;79.45;100946.63;5100985;28;20100;-64
2022/02/07 11:43:51;;;;;;;11.93;4.00;;;;;;;4.97;79.16;100939.03;5115744;28;20051;-63
2022/02/07 11:46:36;;;;;;;6.13;3.45;;;;;;;4.97;79.99;100940.69;5100403;28;20096;-64
2022/02/07 11:49:24;;;;;;;8.05;3.50;;;;;;;4.97;79.26;100948.41;5129785;27;20054;-63
2022/02/07 11:52:41;;;;;;;9.63;4.00;;;;;;;4.98;79.43;100947.59;5116040;28;20047;-63
2022/02/07 11:55:32;;;;;;;13.05;4.25;;;;;;;5.01;79.31;100958.91;5100799;28;20051;-63
2022/02/07 11:58:28;;;;;;;15.93;5.20;;;;;;;5.02;79.08;100958.09;5100533;28;20078;-63
2022/02/07 12:01:13;;;;;;;8.40;4.22;;;;;;;5.04;79.13;100953.06;5100612;28;20097;-63
2022/02/07 12:04:07;;;;;;;12.73;3.75;;;;;;;5.04;79.40;100945.38;5100551;28;20452;-64
2022/02/07 12:07:11;;;;;;;15.10;4.60;;;;;;;5.06;79.38;100950.56;5115766;28;20100;-63
2022/02/07 12:10:03;;;;;;;9.95;4.13;;;;;;;5.06;79.51;100954.00;5112742;28;20050;-63
2022/02/07 12:12:51;;;;;;;9.02;3.70;;;;;;;5.06;79.17;100943.72;5100215;28;20051;-64
2022/02/07 12:15:49;;;;;;;13.05;4.85;;;;;;;5.09;79.25;100951.59;5100287;28;20104;-63
2022/02/07 12:18:33;;;;;;;3.92;3.35;;;;;;;5.10;78.86;100949.94;5100316;28;20051;-63
2022/02/07 12:21:24;;;;;;;6.90;3.92;;;;;;;5.10;79.57;100957.66;5115347;28;20573;-64
2022/02/07 12:24:08;;;;;;;12.80;4.63;;;;;;;5.10;78.93;100957.66;5115385;28;20077;-63
2022/02/07 12:26:57;;;;;;;11.23;3.85;;;;;;;5.10;79.04;100965.34;5115492;28;20038;-65
2022/02/07 12:29:59;;;;;;;7.85;4.28;;;;;;;5.12;79.42;100968.91;5100340;28;20441;-63
2022/02/07 12:32:46;;;;;;;12.07;3.80;;;;;;;5.11;79.31;100960.28;5100099;28;20573;-63
2022/02/07 12:35:31;;;;;;;11.55;3.97;;;;;;;5.11;79.17;100947.44;5099667;28;20055;-64
2022/02/07 12:38:15;;;;;;;;;;;;;;;5.12;79.02;100948.34;5129355;27;20509;-64
2022/02/07 12:41:00;;;;;;;8.90;4.00;;;;;;;5.11;79.37;100934.59;5114964;28;19957;-64
2022/02/07 12:43:51;;;;;;;15.77;5.50;;;;;;;5.11;78.66;100934.59;5114745;28;20114;-64
2022/02/07 12:46:39;;;;;;;9.45;3.65;;;;;;;5.12;79.71;100936.34;5099301;28;20516;-63
2022/02/07 12:49:24;;;;;;;9.05;3.70;;;;;;;5.13;79.06;100934.69;5099832;28;20076;-64
2022/02/07 12:52:08;;;;;;;9.77;3.88;;;;;;;5.14;79.44;100937.31;5114954;28;20051;-63
2022/02/07 12:54:58;;;;;;;13.45;4.97;;;;;;;5.15;78.45;100946.81;5114893;28;20051;-63
2022/02/07 12:57:47;;;;;;;14.55;4.30;;;;;;;5.16;78.84;100946.00;5099425;28;20061;-63
2022/02/07 13:00:31;;;;;;;7.13;4.07;;;;;;;5.17;79.04;100950.34;5114565;28;20058;-64
2022/02/07 13:03:15;;;;;;;17.40;3.95;;;;;;;5.18;79.31;100958.91;5114299;28;20134;-63
2022/02/07 13:06:04;;;;;;;9.25;3.00;;;;;;;5.18;79.20;100953.78;5099112;28;20517;-63
2022/02/07 13:08:49;;;;;;;9.63;3.30;;;;;;;5.18;78.61;100954.69;5114741;28;20149;-64
2022/02/07 13:11:35;;;;;;;8.38;3.78;;;;;;;5.17;79.20;100959.72;5099345;28;20054;-64
2022/02/07 13:14:21;;;;;;;11.93;4.07;;;;;;;5.18;79.15;100954.69;5099219;28;20399;-63
2022/02/07 13:17:10;;;;;;;10.10;3.97;;;;;;;5.18;79.03;100967.53;5114346;28;20090;-63
2022/02/07 13:19:55;;;;;;;8.68;3.15;;;;;;;5.19;78.59;100968.41;5099230;28;20047;-63
2022/02/07 13:22:39;;;;;;;15.82;5.43;;;;;;;5.18;79.17;100972.66;5114251;28;20050;-63
2022/02/07 13:25:23;;;;;;;9.82;4.22;;;;;;;5.17;79.47;100976.03;5098834;28;20047;-64
2022/02/07 13:28:14;;;;;;;10.80;4.25;;;;;;;5.17;78.93;100970.00;5114350;28;20054;-63
2022/02/07 13:31:00;;;;;;;6.10;3.83;;;;;;;5.16;78.95;100979.41;5098855;28;20529;-64
2022/02/07 13:33:50;;;;;;;11.07;4.55;;;;;;;5.14;79.25;100991.28;5099076;28;20051;-64
2022/02/07 13:36:45;;;;;;;12.75;4.47;;;;;;;5.16;78.92;100992.25;5113729;28;20525;-64
2022/02/07 13:39:30;;;;;;;15.85;5.50;;;;;;;5.15;78.76;100992.16;5114002;28;20055;-63
2022/02/07 13:42:15;;;;;;;8.35;3.90;;;;;;;5.15;78.61;101005.91;5113748;28;20455;-64
2022/02/07 13:45:02;;;;;;;10.45;4.13;;;;;;;5.16;78.95;101012.81;5113879;28;20074;-63
2022/02/07 13:47:51;;;;;;;10.82;4.15;;;;;;;5.17;79.14;101011.13;5114025;28;20043;-63
2022/02/07 13:50:36;;;;;;;12.20;4.57;;;;;;;5.16;78.77;101014.50;5098556;28;20416;-64
2022/02/07 13:53:22;;;;;;;11.40;4.00;;;;;;;5.15;79.00;101007.59;5098875;28;20077;-64
2022/02/07 13:56:08;;;;;;;8.50;3.75;;;;;;;5.13;78.90;101007.50;5098791;28;20050;-64
2022/02/07 13:58:52;;;;;;;10.68;3.83;;;;;;;5.16;78.49;101022.19;5098453;28;20047;-63
2022/02/07 14:01:36;;;;;;;7.65;3.17;;;;;;;5.14;78.43;101011.84;5113878;28;20095;-63
2022/02/07 14:04:24;;;;;;;8.35;3.53;;;;;;;5.15;78.63;101016.19;5113815;28;20051;-64
2022/02/07 14:07:13;;;;;;;12.63;4.03;;;;;;;5.16;78.69;101019.63;5113737;28;20046;-63
2022/02/07 14:09:57;;;;;;;6.35;3.25;;;;;;;5.16;78.86;101022.19;5098727;28;20518;-63
2022/02/07 14:12:44;;;;;;;13.98;3.80;;;;;;;5.15;78.87;101023.00;5113791;28;20054;-64
2022/02/07 14:15:28;;;;;;;15.10;4.82;;;;;;;5.15;78.97;101025.56;5113716;28;20046;-63
2022/02/07 14:18:16;;;;;;;10.18;4.40;;;;;;;5.13;79.19;101025.50;5098810;28;20055;-63
2022/02/07 14:21:09;;;;;;;9.73;3.67;;;;;;;5.14;78.75;101027.28;5098355;28;20050;-63
2022/02/07 14:23:55;;;;;;;16.02;4.72;;;;;;;5.13;78.57;101027.19;5113882;28;20525;-64
2022/02/07 14:26:40;;;;;;;9.55;3.85;;;;;;;5.13;79.08;101040.91;5098066;28;20046;-63
2022/02/07 14:29:24;;;;;;;13.13;3.92;;;;;;;5.15;78.47;101048.69;5117746;28;20046;-64
2022/02/07 14:32:08;;;;;;;7.70;4.13;;;;;;;5.13;78.52;101040.91;5117820;28;20047;-63
2022/02/07 14:34:52;;;;;;;9.20;3.70;;;;;;;5.13;78.57;101047.75;5117343;28;20075;-63
2022/02/07 14:37:35;;;;;;;12.25;4.32;;;;;;;5.13;78.65;101050.34;5102047;28;20046;-63
2022/02/07 14:40:22;;;;;;;8.82;4.57;;;;;;;5.13;78.82;101050.34;5117537;28;20509;-63
2022/02/07 14:43:13;;;;;;;9.45;3.70;;;;;;;5.13;78.37;101045.19;5117819;28;20050;-64
2022/02/07 14:48:49;;;;;;;13.07;4.05;;;;;;;5.12;78.97;101059.72;5117528;28;20112;-65
2022/02/07 14:51:33;;;;;;;12.18;5.13;;;;;;;5.11;78.56;101031.38;5102032;28;20051;-64
2022/02/07 14:54:19;;;;;;;5.43;3.00;;;;;;;5.12;78.52;101043.41;5117152;28;20088;-65
2022/02/07 14:57:04;;;;;;;9.27;3.83;;;;;;;5.11;78.15;101050.22;5117206;28;20066;-65
2022/02/07 14:59:48;;;;;;;;;;;;;;;5.11;78.78;101047.66;5117644;28;20448;-65
2022/02/07 15:02:32;;;;;;;9.82;3.80;;;;;;;5.09;78.61;101054.41;5116904;28;19919;-64
2022/02/07 15:05:17;;;;;;;6.95;3.75;;;;;;;5.10;78.42;101050.16;5116800;28;20050;-65
2022/02/07 15:08:03;;;;;;;9.73;4.57;;;;;;;5.10;78.16;101057.88;5101584;28;20402;-64
2022/02/07 15:10:47;;;;;;;10.55;3.80;;;;;;;5.10;78.27;101040.75;5101635;28;20407;-65
2022/02/07 15:13:33;;;;;;;5.90;3.95;;;;;;;5.10;78.34;101045.88;5117041;28;20062;-64
2022/02/07 15:16:17;;;;;;;8.80;3.67;;;;;;;5.11;78.21;101039.94;5116889;28;20103;-64
2022/02/07 15:19:01;;;;;;;8.90;3.83;;;;;;;5.11;78.30;101037.38;5116556;28;20051;-64
2022/02/07 15:21:45;;;;;;;8.40;3.50;;;;;;;5.10;78.78;101042.44;5116669;28;20069;-65
2022/02/07 15:24:31;;;;;;;12.75;4.70;;;;;;;5.10;78.07;101048.47;5101103;28;20047;-64
2022/02/07 15:27:16;;;;;;;6.03;3.35;;;;;;;5.10;78.38;101052.72;5101149;28;20046;-65